E.r. Borneo — A8SZ4 — position and weather

sailwx.info

Track history (hours):
 
Tides and Currents Weather Stations Pressure Air Temp Water Temp Dewpoint Dewpoint Depression Visibility Wind Speed Wind Dir Waves Ship Positions

E.r. Borneo

Last reported at 2015-Apr-01 10:30 UTC. Time now 2015-Apr-02 09:49 UTC.
Position N 29°01' E 122°43'.

Length 292 m; draft 8.5 m.

Type: Cargo ship. MMSI: 636091797.

Date/timePositionNaut miles runAvg speedWind from/ knotsBaromVisibWave heightAir tempDewpointWater temp
2015-Apr-01 10:30N 29°01' E 122°43'45510.3
2015-Mar-30 14:29N 36°34' E 123°16'910.0
2015-Mar-30 13:33N 36°44' E 123°16'1010.3
2015-Mar-30 12:33N 36°54' E 123°15'1110.4
2015-Mar-30 11:32N 37°05' E 123°15'1010.2
2015-Mar-30 10:33N 37°14' E 123°14'43 8.4
2015-Mar-30 05:26N 37°51' E 122°46'9 9.7
2015-Mar-30 04:29N 37°55' E 122°36'10 9.9
2015-Mar-30 03:27N 37°59' E 122°24'910.2
2015-Mar-30 02:33N 38°03' E 122°14'1010.1
2015-Mar-30 01:32N 38°08' E 122°02'1410.3
2015-Mar-30 00:09N 38°14' E 121°45'610.2
2015-Mar-29 23:30N 38°17' E 121°38'109 9.6
2015-Mar-29 12:07N 39°38' E 120°04'6 9.6
2015-Mar-29 11:27N 39°43' E 119°60'910.0
2015-Mar-29 10:33N 39°51' E 119°53'8 8.0
2015-Mar-29 09:33N 39°58' E 119°49'0 0.4
2015-Mar-29 08:22N 39°59' E 119°49'0 0.0
2015-Mar-29 07:28N 39°59' E 119°49'0 0.0
2015-Mar-29 06:28N 39°59' E 119°49'0 0.0
2015-Mar-29 05:28N 39°59' E 119°49'0 0.0
2015-Mar-29 04:28N 39°59' E 119°49'0 0.0
2015-Mar-29 03:16N 39°59' E 119°49'0 0.0
2015-Mar-29 02:22N 39°59' E 119°49'0 0.0
2015-Mar-29 01:28N 39°59' E 119°49'0 0.0
2015-Mar-29 00:28N 39°59' E 119°49'0 0.0
2015-Mar-28 23:16N 39°59' E 119°49'0 0.0
2015-Mar-28 22:28N 39°59' E 119°49'0 0.0
2015-Mar-28 21:28N 39°59' E 119°49'0 0.0
2015-Mar-28 20:28N 39°59' E 119°49'0 0.0
2015-Mar-28 19:22N 39°59' E 119°49'0 0.0
2015-Mar-28 18:28N 39°59' E 119°49'0 0.0
2015-Mar-28 17:28N 39°59' E 119°49'0 0.0
2015-Mar-28 16:28N 39°59' E 119°49'0 0.0
2015-Mar-28 15:28N 39°59' E 119°49'0 0.0
2015-Mar-28 14:28N 39°59' E 119°49'0 0.0
2015-Mar-28 13:28N 39°59' E 119°49'0 0.0
2015-Mar-28 12:28N 39°59' E 119°49'0 0.0
2015-Mar-28 11:28N 39°59' E 119°49'0 0.0
2015-Mar-28 10:28N 39°59' E 119°49'0 0.0
2015-Mar-28 09:28N 39°59' E 119°49'0 0.0
2015-Mar-28 08:28N 39°59' E 119°49'0 0.0
2015-Mar-28 07:28N 39°59' E 119°49'0 0.0
2015-Mar-28 06:28N 39°59' E 119°49'0 0.0
2015-Mar-28 05:28N 39°59' E 119°49'0 0.0
2015-Mar-28 03:28N 39°59' E 119°49'0 0.0
2015-Mar-28 02:28N 39°59' E 119°49'0 0.0
2015-Mar-28 01:22N 39°59' E 119°49'0 0.0
2015-Mar-28 00:28N 39°59' E 119°49'0 0.0
2015-Mar-27 23:28N 39°59' E 119°49'0 0.0
2015-Mar-27 22:28N 39°59' E 119°49'0 0.0
2015-Mar-27 21:28N 39°59' E 119°49'0 0.0
2015-Mar-27 20:28N 39°59' E 119°49'0 0.0
2015-Mar-27 19:28N 39°59' E 119°49'0 0.0
2015-Mar-27 18:28N 39°59' E 119°49'0 0.0
2015-Mar-27 17:28N 39°59' E 119°49'0 0.0
2015-Mar-27 16:28N 39°59' E 119°49'0 0.0
2015-Mar-27 15:22N 39°59' E 119°49'0 0.0
2015-Mar-27 14:22N 39°59' E 119°49'0 0.0
2015-Mar-27 13:28N 39°59' E 119°49'0 0.0
2015-Mar-27 12:28N 39°59' E 119°49'0 0.0
2015-Mar-27 11:28N 39°59' E 119°49'0 0.0
2015-Mar-27 10:28N 39°59' E 119°49'0 0.0
2015-Mar-27 09:28N 39°59' E 119°49'0 0.0
2015-Mar-27 08:28N 39°59' E 119°49'0 0.0
2015-Mar-27 07:28N 39°59' E 119°49'0 0.0
2015-Mar-27 06:28N 39°59' E 119°49'0 0.0
2015-Mar-27 05:28N 39°59' E 119°49'0 0.0
2015-Mar-27 04:22N 39°59' E 119°49'0 0.0
2015-Mar-27 03:28N 39°59' E 119°49'0 0.0
2015-Mar-27 02:22N 39°59' E 119°49'0 0.0
2015-Mar-27 01:28N 39°59' E 119°49'0 0.0
2015-Mar-27 00:28N 39°59' E 119°49'0 0.0
2015-Mar-26 23:22N 39°59' E 119°49'0 0.0
2015-Mar-26 21:21N 39°59' E 119°49'0 0.0
2015-Mar-26 20:33N 39°59' E 119°49'0 0.0
2015-Mar-26 19:33N 39°59' E 119°49'0 0.0
2015-Mar-26 18:33N 39°59' E 119°49'0 0.0
2015-Mar-26 17:33N 39°59' E 119°49'0 0.0
2015-Mar-26 16:33N 39°59' E 119°49'0 0.0
2015-Mar-26 15:33N 39°59' E 119°49'0 0.0
2015-Mar-26 14:33N 39°59' E 119°49'0 0.0
2015-Mar-26 13:33N 39°59' E 119°49'0 0.0
2015-Mar-26 12:33N 39°59' E 119°49'0 0.0
2015-Mar-26 11:33N 39°59' E 119°49'0 0.0
2015-Mar-26 10:33N 39°59' E 119°49'0 0.0
2015-Mar-26 09:33N 39°59' E 119°49'0 0.0
2015-Mar-26 08:33N 39°59' E 119°49'0 0.0
2015-Mar-26 07:27N 39°59' E 119°49'0 0.0
2015-Mar-26 06:33N 39°59' E 119°49'0 0.0
2015-Mar-26 05:33N 39°59' E 119°49'0 0.0
2015-Mar-26 04:33N 39°59' E 119°49'0 0.0
2015-Mar-26 03:33N 39°59' E 119°49'0 0.0
2015-Mar-26 02:33N 39°59' E 119°49'0 0.0
2015-Mar-26 01:33N 39°59' E 119°49'0 0.0
2015-Mar-26 00:33N 39°59' E 119°49'0 0.0
2015-Mar-25 23:33N 39°59' E 119°49'0 0.0
2015-Mar-25 22:33N 39°59' E 119°49'0 0.0
2015-Mar-25 21:33N 39°59' E 119°49'0 0.0
2015-Mar-25 20:33N 39°59' E 119°49'0 0.0
2015-Mar-25 19:33N 39°59' E 119°49'0 0.0
2015-Mar-25 18:33N 39°59' E 119°49'0 0.0
2015-Mar-25 17:27N 39°59' E 119°49'0 0.0
2015-Mar-25 16:27N 39°59' E 119°49'0 0.0
2015-Mar-25 15:33N 39°59' E 119°49'0 0.0
2015-Mar-25 14:33N 39°59' E 119°49'0 0.0
2015-Mar-25 13:33N 39°59' E 119°49'0 0.0
2015-Mar-25 12:33N 39°59' E 119°49'0 0.0
2015-Mar-25 11:33N 39°59' E 119°49'0 0.0
2015-Mar-25 10:27N 39°59' E 119°49'0 0.0
2015-Mar-25 09:33N 39°59' E 119°49'0 0.0
2015-Mar-25 08:33N 39°59' E 119°49'0 0.0
2015-Mar-25 07:33N 39°59' E 119°49'0 0.0
2015-Mar-25 06:27N 39°59' E 119°49'0 0.0
2015-Mar-25 05:33N 39°59' E 119°49'0 0.0
2015-Mar-25 04:33N 39°59' E 119°49'0 0.0
2015-Mar-25 03:33N 39°59' E 119°49'0 0.0
2015-Mar-25 02:33N 39°59' E 119°49'0 0.0
2015-Mar-25 01:33N 39°59' E 119°49'0 0.0
2015-Mar-25 00:33N 39°59' E 119°49'0 0.0
2015-Mar-24 23:33N 39°59' E 119°49'0 0.0
2015-Mar-24 22:33N 39°59' E 119°49'0 0.0
2015-Mar-24 21:33N 39°59' E 119°49'0 0.0
2015-Mar-24 20:33N 39°59' E 119°49'0 0.0
2015-Mar-24 19:33N 39°59' E 119°49'0 0.0
2015-Mar-24 18:33N 39°59' E 119°49'0 0.0
2015-Mar-24 17:33N 39°59' E 119°49'0 0.0
2015-Mar-24 16:33N 39°59' E 119°49'0 0.0
2015-Mar-24 15:33N 39°59' E 119°49'0 0.0
2015-Mar-24 14:33N 39°59' E 119°49'0 0.0
2015-Mar-24 13:33N 39°59' E 119°49'0 0.0
2015-Mar-24 12:33N 39°59' E 119°49'0 0.0
2015-Mar-24 11:33N 39°59' E 119°49'0 0.0
2015-Mar-24 10:33N 39°59' E 119°49'0 0.0
2015-Mar-24 09:33N 39°59' E 119°49'0 0.0
2015-Mar-24 08:27N 39°59' E 119°49'0 0.0
2015-Mar-24 07:33N 39°59' E 119°49'0 0.0
2015-Mar-24 06:33N 39°59' E 119°49'0 0.0
2015-Mar-24 05:33N 39°59' E 119°49'0 0.0
2015-Mar-24 04:33N 39°59' E 119°49'0 0.0
2015-Mar-24 03:33N 39°59' E 119°49'0 0.0
2015-Mar-24 02:33N 39°59' E 119°49'0 0.0
2015-Mar-24 01:33N 39°59' E 119°49'0 0.0
2015-Mar-24 00:33N 39°59' E 119°49'0 0.0
2015-Mar-23 23:33N 39°59' E 119°49'0 0.0
2015-Mar-23 22:33N 39°59' E 119°49'0 0.0
2015-Mar-23 21:33N 39°59' E 119°49'0 0.0
2015-Mar-23 20:33N 39°59' E 119°49'0 0.0
2015-Mar-23 16:03N 39°59' E 119°49'0 0.0
2015-Mar-23 15:33N 39°59' E 119°49'0 0.0
2015-Mar-23 14:33N 39°59' E 119°49'0 0.0
2015-Mar-23 13:33N 39°59' E 119°49'0 0.0
2015-Mar-23 12:33N 39°59' E 119°49'0 0.0
2015-Mar-23 11:33N 39°59' E 119°49'0 0.0
2015-Mar-23 10:33N 39°59' E 119°49'0 0.0
2015-Mar-23 09:33N 39°59' E 119°49'0 0.0
2015-Mar-23 08:33N 39°59' E 119°49'0 0.0
2015-Mar-23 07:33N 39°59' E 119°49'0 0.0
2015-Mar-23 06:33N 39°59' E 119°49'0 0.0
2015-Mar-23 05:33N 39°59' E 119°49'0 0.0
2015-Mar-23 04:33N 39°59' E 119°49'0 0.0
2015-Mar-23 03:33N 39°59' E 119°49'0 0.0
2015-Mar-23 02:33N 39°59' E 119°49'0 0.0
2015-Mar-23 01:33N 39°59' E 119°49'0 0.0
2015-Mar-23 00:33N 39°59' E 119°49'0 0.0
2015-Mar-22 23:33N 39°59' E 119°49'0 0.0
2015-Mar-22 22:33N 39°59' E 119°49'0 0.0
2015-Mar-22 21:27N 39°59' E 119°49'0 0.0
2015-Mar-22 20:33N 39°59' E 119°49'0 0.0
2015-Mar-22 19:33N 39°59' E 119°49'0 0.0
2015-Mar-22 18:33N 39°59' E 119°49'0 0.0
2015-Mar-22 17:33N 39°59' E 119°49'0 0.0
2015-Mar-22 16:33N 39°59' E 119°49'0 0.0
2015-Mar-22 15:33N 39°59' E 119°49'0 0.0
2015-Mar-22 14:33N 39°59' E 119°49'0 0.0
2015-Mar-22 13:33N 39°59' E 119°49'0 0.0
2015-Mar-22 12:27N 39°59' E 119°49'0 0.0
2015-Mar-22 11:33N 39°59' E 119°49'0 0.0
2015-Mar-22 10:33N 39°59' E 119°49'  
Track history (hours):
 
Tides and Currents Weather Stations Pressure Air Temp Water Temp Dewpoint Dewpoint Depression Visibility Wind Speed Wind Dir Waves Ship Positions

E.r. Borneo

Last reported at 2015-Apr-01 10:30 UTC. Time now 2015-Apr-02 09:49 UTC.
Position N 29°01' E 122°43'.

Length 292 m; draft 8.5 m.

Type: Cargo ship. MMSI: 636091797.

Date/timePositionNaut miles runAvg speedWind from/ knotsBaromVisibWave heightAir tempDewpointWater temp
2015-Apr-01 10:30N 29°01' E 122°43'45510.3
2015-Mar-30 14:29N 36°34' E 123°16'910.0
2015-Mar-30 13:33N 36°44' E 123°16'1010.3
2015-Mar-30 12:33N 36°54' E 123°15'1110.4
2015-Mar-30 11:32N 37°05' E 123°15'1010.2
2015-Mar-30 10:33N 37°14' E 123°14'43 8.4
2015-Mar-30 05:26N 37°51' E 122°46'9 9.7
2015-Mar-30 04:29N 37°55' E 122°36'10 9.9
2015-Mar-30 03:27N 37°59' E 122°24'910.2
2015-Mar-30 02:33N 38°03' E 122°14'1010.1
2015-Mar-30 01:32N 38°08' E 122°02'1410.3
2015-Mar-30 00:09N 38°14' E 121°45'610.2
2015-Mar-29 23:30N 38°17' E 121°38'109 9.6
2015-Mar-29 12:07N 39°38' E 120°04'6 9.6
2015-Mar-29 11:27N 39°43' E 119°60'910.0
2015-Mar-29 10:33N 39°51' E 119°53'8 8.0
2015-Mar-29 09:33N 39°58' E 119°49'0 0.4
2015-Mar-29 08:22N 39°59' E 119°49'0 0.0
2015-Mar-29 07:28N 39°59' E 119°49'0 0.0
2015-Mar-29 06:28N 39°59' E 119°49'0 0.0
2015-Mar-29 05:28N 39°59' E 119°49'0 0.0
2015-Mar-29 04:28N 39°59' E 119°49'0 0.0
2015-Mar-29 03:16N 39°59' E 119°49'0 0.0
2015-Mar-29 02:22N 39°59' E 119°49'0 0.0
2015-Mar-29 01:28N 39°59' E 119°49'0 0.0
2015-Mar-29 00:28N 39°59' E 119°49'0 0.0
2015-Mar-28 23:16N 39°59' E 119°49'0 0.0
2015-Mar-28 22:28N 39°59' E 119°49'0 0.0
2015-Mar-28 21:28N 39°59' E 119°49'0 0.0
2015-Mar-28 20:28N 39°59' E 119°49'0 0.0
2015-Mar-28 19:22N 39°59' E 119°49'0 0.0
2015-Mar-28 18:28N 39°59' E 119°49'0 0.0
2015-Mar-28 17:28N 39°59' E 119°49'0 0.0
2015-Mar-28 16:28N 39°59' E 119°49'0 0.0
2015-Mar-28 15:28N 39°59' E 119°49'0 0.0
2015-Mar-28 14:28N 39°59' E 119°49'0 0.0
2015-Mar-28 13:28N 39°59' E 119°49'0 0.0
2015-Mar-28 12:28N 39°59' E 119°49'0 0.0
2015-Mar-28 11:28N 39°59' E 119°49'0 0.0
2015-Mar-28 10:28N 39°59' E 119°49'0 0.0
2015-Mar-28 09:28N 39°59' E 119°49'0 0.0
2015-Mar-28 08:28N 39°59' E 119°49'0 0.0
2015-Mar-28 07:28N 39°59' E 119°49'0 0.0
2015-Mar-28 06:28N 39°59' E 119°49'0 0.0
2015-Mar-28 05:28N 39°59' E 119°49'0 0.0
2015-Mar-28 03:28N 39°59' E 119°49'0 0.0
2015-Mar-28 02:28N 39°59' E 119°49'0 0.0
2015-Mar-28 01:22N 39°59' E 119°49'0 0.0
2015-Mar-28 00:28N 39°59' E 119°49'0 0.0
2015-Mar-27 23:28N 39°59' E 119°49'0 0.0
2015-Mar-27 22:28N 39°59' E 119°49'0 0.0
2015-Mar-27 21:28N 39°59' E 119°49'0 0.0
2015-Mar-27 20:28N 39°59' E 119°49'0 0.0
2015-Mar-27 19:28N 39°59' E 119°49'0 0.0
2015-Mar-27 18:28N 39°59' E 119°49'0 0.0
2015-Mar-27 17:28N 39°59' E 119°49'0 0.0
2015-Mar-27 16:28N 39°59' E 119°49'0 0.0
2015-Mar-27 15:22N 39°59' E 119°49'0 0.0
2015-Mar-27 14:22N 39°59' E 119°49'0 0.0
2015-Mar-27 13:28N 39°59' E 119°49'0 0.0
2015-Mar-27 12:28N 39°59' E 119°49'0 0.0
2015-Mar-27 11:28N 39°59' E 119°49'0 0.0
2015-Mar-27 10:28N 39°59' E 119°49'0 0.0
2015-Mar-27 09:28N 39°59' E 119°49'0 0.0
2015-Mar-27 08:28N 39°59' E 119°49'0 0.0
2015-Mar-27 07:28N 39°59' E 119°49'0 0.0
2015-Mar-27 06:28N 39°59' E 119°49'0 0.0
2015-Mar-27 05:28N 39°59' E 119°49'0 0.0
2015-Mar-27 04:22N 39°59' E 119°49'0 0.0
2015-Mar-27 03:28N 39°59' E 119°49'0 0.0
2015-Mar-27 02:22N 39°59' E 119°49'0 0.0
2015-Mar-27 01:28N 39°59' E 119°49'0 0.0
2015-Mar-27 00:28N 39°59' E 119°49'0 0.0
2015-Mar-26 23:22N 39°59' E 119°49'0 0.0
2015-Mar-26 21:21N 39°59' E 119°49'0 0.0
2015-Mar-26 20:33N 39°59' E 119°49'0 0.0
2015-Mar-26 19:33N 39°59' E 119°49'0 0.0
2015-Mar-26 18:33N 39°59' E 119°49'0 0.0
2015-Mar-26 17:33N 39°59' E 119°49'0 0.0
2015-Mar-26 16:33N 39°59' E 119°49'0 0.0
2015-Mar-26 15:33N 39°59' E 119°49'0 0.0
2015-Mar-26 14:33N 39°59' E 119°49'0 0.0
2015-Mar-26 13:33N 39°59' E 119°49'0 0.0
2015-Mar-26 12:33N 39°59' E 119°49'0 0.0
2015-Mar-26 11:33N 39°59' E 119°49'0 0.0
2015-Mar-26 10:33N 39°59' E 119°49'0 0.0
2015-Mar-26 09:33N 39°59' E 119°49'0 0.0
2015-Mar-26 08:33N 39°59' E 119°49'0 0.0
2015-Mar-26 07:27N 39°59' E 119°49'0 0.0
2015-Mar-26 06:33N 39°59' E 119°49'0 0.0
2015-Mar-26 05:33N 39°59' E 119°49'0 0.0
2015-Mar-26 04:33N 39°59' E 119°49'0 0.0
2015-Mar-26 03:33N 39°59' E 119°49'0 0.0
2015-Mar-26 02:33N 39°59' E 119°49'0 0.0
2015-Mar-26 01:33N 39°59' E 119°49'0 0.0
2015-Mar-26 00:33N 39°59' E 119°49'0 0.0
2015-Mar-25 23:33N 39°59' E 119°49'0 0.0
2015-Mar-25 22:33N 39°59' E 119°49'0 0.0
2015-Mar-25 21:33N 39°59' E 119°49'0 0.0
2015-Mar-25 20:33N 39°59' E 119°49'0 0.0
2015-Mar-25 19:33N 39°59' E 119°49'0 0.0
2015-Mar-25 18:33N 39°59' E 119°49'0 0.0
2015-Mar-25 17:27N 39°59' E 119°49'0 0.0
2015-Mar-25 16:27N 39°59' E 119°49'0 0.0
2015-Mar-25 15:33N 39°59' E 119°49'0 0.0
2015-Mar-25 14:33N 39°59' E 119°49'0 0.0
2015-Mar-25 13:33N 39°59' E 119°49'0 0.0
2015-Mar-25 12:33N 39°59' E 119°49'0 0.0
2015-Mar-25 11:33N 39°59' E 119°49'0 0.0
2015-Mar-25 10:27N 39°59' E 119°49'0 0.0
2015-Mar-25 09:33N 39°59' E 119°49'0 0.0
2015-Mar-25 08:33N 39°59' E 119°49'0 0.0
2015-Mar-25 07:33N 39°59' E 119°49'0 0.0
2015-Mar-25 06:27N 39°59' E 119°49'0 0.0
2015-Mar-25 05:33N 39°59' E 119°49'0 0.0
2015-Mar-25 04:33N 39°59' E 119°49'0 0.0
2015-Mar-25 03:33N 39°59' E 119°49'0 0.0
2015-Mar-25 02:33N 39°59' E 119°49'0 0.0
2015-Mar-25 01:33N 39°59' E 119°49'0 0.0
2015-Mar-25 00:33N 39°59' E 119°49'0 0.0
2015-Mar-24 23:33N 39°59' E 119°49'0 0.0
2015-Mar-24 22:33N 39°59' E 119°49'0 0.0
2015-Mar-24 21:33N 39°59' E 119°49'0 0.0
2015-Mar-24 20:33N 39°59' E 119°49'0 0.0
2015-Mar-24 19:33N 39°59' E 119°49'0 0.0
2015-Mar-24 18:33N 39°59' E 119°49'0 0.0
2015-Mar-24 17:33N 39°59' E 119°49'0 0.0
2015-Mar-24 16:33N 39°59' E 119°49'0 0.0
2015-Mar-24 15:33N 39°59' E 119°49'0 0.0
2015-Mar-24 14:33N 39°59' E 119°49'0 0.0
2015-Mar-24 13:33N 39°59' E 119°49'0 0.0
2015-Mar-24 12:33N 39°59' E 119°49'0 0.0
2015-Mar-24 11:33N 39°59' E 119°49'0 0.0
2015-Mar-24 10:33N 39°59' E 119°49'0 0.0
2015-Mar-24 09:33N 39°59' E 119°49'0 0.0
2015-Mar-24 08:27N 39°59' E 119°49'0 0.0
2015-Mar-24 07:33N 39°59' E 119°49'0 0.0
2015-Mar-24 06:33N 39°59' E 119°49'0 0.0
2015-Mar-24 05:33N 39°59' E 119°49'0 0.0
2015-Mar-24 04:33N 39°59' E 119°49'0 0.0
2015-Mar-24 03:33N 39°59' E 119°49'0 0.0
2015-Mar-24 02:33N 39°59' E 119°49'0 0.0
2015-Mar-24 01:33N 39°59' E 119°49'0 0.0
2015-Mar-24 00:33N 39°59' E 119°49'0 0.0
2015-Mar-23 23:33N 39°59' E 119°49'0 0.0
2015-Mar-23 22:33N 39°59' E 119°49'0 0.0
2015-Mar-23 21:33N 39°59' E 119°49'0 0.0
2015-Mar-23 20:33N 39°59' E 119°49'0 0.0
2015-Mar-23 16:03N 39°59' E 119°49'0 0.0
2015-Mar-23 15:33N 39°59' E 119°49'0 0.0
2015-Mar-23 14:33N 39°59' E 119°49'0 0.0
2015-Mar-23 13:33N 39°59' E 119°49'0 0.0
2015-Mar-23 12:33N 39°59' E 119°49'0 0.0
2015-Mar-23 11:33N 39°59' E 119°49'0 0.0
2015-Mar-23 10:33N 39°59' E 119°49'0 0.0
2015-Mar-23 09:33N 39°59' E 119°49'0 0.0
2015-Mar-23 08:33N 39°59' E 119°49'0 0.0
2015-Mar-23 07:33N 39°59' E 119°49'0 0.0
2015-Mar-23 06:33N 39°59' E 119°49'0 0.0
2015-Mar-23 05:33N 39°59' E 119°49'0 0.0
2015-Mar-23 04:33N 39°59' E 119°49'0 0.0
2015-Mar-23 03:33N 39°59' E 119°49'0 0.0
2015-Mar-23 02:33N 39°59' E 119°49'0 0.0
2015-Mar-23 01:33N 39°59' E 119°49'0 0.0
2015-Mar-23 00:33N 39°59' E 119°49'0 0.0
2015-Mar-22 23:33N 39°59' E 119°49'0 0.0
2015-Mar-22 22:33N 39°59' E 119°49'0 0.0
2015-Mar-22 21:27N 39°59' E 119°49'0 0.0
2015-Mar-22 20:33N 39°59' E 119°49'0 0.0
2015-Mar-22 19:33N 39°59' E 119°49'0 0.0
2015-Mar-22 18:33N 39°59' E 119°49'0 0.0
2015-Mar-22 17:33N 39°59' E 119°49'0 0.0
2015-Mar-22 16:33N 39°59' E 119°49'0 0.0
2015-Mar-22 15:33N 39°59' E 119°49'0 0.0
2015-Mar-22 14:33N 39°59' E 119°49'0 0.0
2015-Mar-22 13:33N 39°59' E 119°49'0 0.0
2015-Mar-22 12:27N 39°59' E 119°49'0 0.0
2015-Mar-22 11:33N 39°59' E 119°49'0 0.0
2015-Mar-22 10:33N 39°59' E 119°49'  

Dump ship's entire track history